Terminal Aerodrome Forecast
Issued by NWS

Home | Current Version | Previous Version | Text Only | Print | Product List | Glossary On
Versions: 1 2 3 4 5 6 7 8 9 10 11 12 13 14 15 16 17 18 19 20 21 22 23 24 25 26 27 28 29 30 31
667
FTUS46 KMTR 220320 AAA
TAFSFO
TAF AMD
KSFO 220320Z 2203/2306 27022G29KT P6SM FEW020 SCT200
     FM220400 27017G24KT P6SM FEW020
     FM220600 27013KT P6SM FEW015 FEW030
     FM221300 26007KT P6SM FEW015 FEW025 SCT035
      TEMPO 2213/2217 SCT022 BKN030
     FM221800 29007KT P6SM FEW035
     FM222200 28015KT P6SM SKC
     FM230400 27008KT P6SM SKC=

USA.gov is the U.S. government's official web portal to all federal, state and local government web resources and services.